sensor_id;sensor_type;location;lat;lon;timestamp;temperature;humidity
45207;DHT22;30950;53.086;21.576;2023-08-20T00:01:50;21.20;99.90
45207;DHT22;30950;53.086;21.576;2023-08-20T00:04:25;21.20;99.90
45207;DHT22;30950;53.086;21.576;2023-08-20T00:06:53;21.20;99.90
45207;DHT22;30950;53.086;21.576;2023-08-20T00:09:21;21.10;99.90
45207;DHT22;30950;53.086;21.576;2023-08-20T00:11:48;21.10;99.90
45207;DHT22;30950;53.086;21.576;2023-08-20T00:14:17;21.10;99.90
45207;DHT22;30950;53.086;21.576;2023-08-20T00:16:45;21.10;99.90
45207;DHT22;30950;53.086;21.576;2023-08-20T00:19:13;21.10;99.90
45207;DHT22;30950;53.086;21.576;2023-08-20T00:21:43;21.00;99.90
45207;DHT22;30950;53.086;21.576;2023-08-20T00:24:12;21.00;99.90
45207;DHT22;30950;53.086;21.576;2023-08-20T00:26:39;21.00;99.90
45207;DHT22;30950;53.086;21.576;2023-08-20T00:29:07;21.00;99.90
45207;DHT22;30950;53.086;21.576;2023-08-20T00:31:35;20.90;99.90
45207;DHT22;30950;53.086;21.576;2023-08-20T00:34:03;20.90;99.90
45207;DHT22;30950;53.086;21.576;2023-08-20T00:36:33;20.90;99.90
45207;DHT22;30950;53.086;21.576;2023-08-20T00:39:01;20.90;99.90
45207;DHT22;30950;53.086;21.576;2023-08-20T00:41:29;20.80;99.90
45207;DHT22;30950;53.086;21.576;2023-08-20T00:43:57;20.80;99.90
45207;DHT22;30950;53.086;21.576;2023-08-20T00:46:26;20.80;99.90
45207;DHT22;30950;53.086;21.576;2023-08-20T00:48:54;20.80;99.90
45207;DHT22;30950;53.086;21.576;2023-08-20T00:51:23;20.80;99.90
45207;DHT22;30950;53.086;21.576;2023-08-20T00:53:50;20.80;99.90
45207;DHT22;30950;53.086;21.576;2023-08-20T00:56:18;20.80;99.90
45207;DHT22;30950;53.086;21.576;2023-08-20T00:58:45;20.80;99.90
45207;DHT22;30950;53.086;21.576;2023-08-20T01:01:13;20.80;99.90
45207;DHT22;30950;53.086;21.576;2023-08-20T01:03:40;20.80;99.90
45207;DHT22;30950;53.086;21.576;2023-08-20T01:09:06;20.80;99.90
45207;DHT22;30950;53.086;21.576;2023-08-20T01:11:45;20.80;99.90
45207;DHT22;30950;53.086;21.576;2023-08-20T01:14:15;20.80;99.90
45207;DHT22;30950;53.086;21.576;2023-08-20T01:16:44;20.70;99.90
45207;DHT22;30950;53.086;21.576;2023-08-20T01:19:19;20.70;99.90
45207;DHT22;30950;53.086;21.576;2023-08-20T01:24:53;20.70;99.90
45207;DHT22;30950;53.086;21.576;2023-08-20T01:30:31;20.70;99.90
45207;DHT22;30950;53.086;21.576;2023-08-20T01:32:59;20.70;99.90
45207;DHT22;30950;53.086;21.576;2023-08-20T01:35:29;20.70;99.90
45207;DHT22;30950;53.086;21.576;2023-08-20T01:38:03;20.70;99.90
45207;DHT22;30950;53.086;21.576;2023-08-20T01:40:31;20.70;99.90
45207;DHT22;30950;53.086;21.576;2023-08-20T01:42:59;20.70;99.90
45207;DHT22;30950;53.086;21.576;2023-08-20T01:45:26;20.70;99.90
45207;DHT22;30950;53.086;21.576;2023-08-20T01:47:54;20.70;99.90
45207;DHT22;30950;53.086;21.576;2023-08-20T01:50:21;20.70;99.90
45207;DHT22;30950;53.086;21.576;2023-08-20T01:52:48;20.70;99.90
45207;DHT22;30950;53.086;21.576;2023-08-20T01:55:16;20.70;99.90
45207;DHT22;30950;53.086;21.576;2023-08-20T01:57:43;20.80;99.90
45207;DHT22;30950;53.086;21.576;2023-08-20T02:00:11;20.90;99.90
45207;DHT22;30950;53.086;21.576;2023-08-20T02:02:41;21.00;99.90
45207;DHT22;30950;53.086;21.576;2023-08-20T02:05:09;21.10;99.90
45207;DHT22;30950;53.086;21.576;2023-08-20T02:07:39;21.10;99.90
45207;DHT22;30950;53.086;21.576;2023-08-20T02:10:07;21.00;99.90
45207;DHT22;30950;53.086;21.576;2023-08-20T02:12:35;21.00;99.90
45207;DHT22;30950;53.086;21.576;2023-08-20T02:15:04;21.00;99.90
45207;DHT22;30950;53.086;21.576;2023-08-20T02:17:32;20.90;99.90
45207;DHT22;30950;53.086;21.576;2023-08-20T02:20:01;20.90;99.90
45207;DHT22;30950;53.086;21.576;2023-08-20T02:22:28;20.80;99.90
45207;DHT22;30950;53.086;21.576;2023-08-20T02:24:56;20.70;99.90
45207;DHT22;30950;53.086;21.576;2023-08-20T02:27:24;20.60;99.90
45207;DHT22;30950;53.086;21.576;2023-08-20T02:29:51;20.50;99.90
45207;DHT22;30950;53.086;21.576;2023-08-20T02:32:19;20.50;99.90
45207;DHT22;30950;53.086;21.576;2023-08-20T02:34:53;20.40;99.90
45207;DHT22;30950;53.086;21.576;2023-08-20T02:37:25;20.40;99.90
45207;DHT22;30950;53.086;21.576;2023-08-20T02:39:53;20.30;99.90
45207;DHT22;30950;53.086;21.576;2023-08-20T02:42:20;20.40;99.90
45207;DHT22;30950;53.086;21.576;2023-08-20T02:44:48;20.30;99.90
45207;DHT22;30950;53.086;21.576;2023-08-20T02:47:15;20.30;99.90
45207;DHT22;30950;53.086;21.576;2023-08-20T02:49:43;20.20;99.90
45207;DHT22;30950;53.086;21.576;2023-08-20T02:52:11;20.20;99.90
45207;DHT22;30950;53.086;21.576;2023-08-20T02:54:39;20.20;99.90
45207;DHT22;30950;53.086;21.576;2023-08-20T02:57:06;20.30;99.90
45207;DHT22;30950;53.086;21.576;2023-08-20T02:59:33;20.20;99.90
45207;DHT22;30950;53.086;21.576;2023-08-20T03:02:01;20.20;99.90
45207;DHT22;30950;53.086;21.576;2023-08-20T03:04:32;20.30;99.90
45207;DHT22;30950;53.086;21.576;2023-08-20T03:06:59;20.30;99.90
45207;DHT22;30950;53.086;21.576;2023-08-20T03:09:27;20.30;99.90
45207;DHT22;30950;53.086;21.576;2023-08-20T03:11:54;20.30;99.90
45207;DHT22;30950;53.086;21.576;2023-08-20T03:14:22;20.40;99.90
45207;DHT22;30950;53.086;21.576;2023-08-20T03:16:53;20.40;99.90
45207;DHT22;30950;53.086;21.576;2023-08-20T03:19:20;20.40;99.90
45207;DHT22;30950;53.086;21.576;2023-08-20T03:21:48;20.40;99.90
45207;DHT22;30950;53.086;21.576;2023-08-20T03:24:15;20.30;99.90
45207;DHT22;30950;53.086;21.576;2023-08-20T03:26:43;20.30;99.90
45207;DHT22;30950;53.086;21.576;2023-08-20T03:29:10;20.30;99.90
45207;DHT22;30950;53.086;21.576;2023-08-20T03:31:39;20.30;99.90
45207;DHT22;30950;53.086;21.576;2023-08-20T03:34:07;20.20;99.90
45207;DHT22;30950;53.086;21.576;2023-08-20T03:36:37;20.20;99.90
45207;DHT22;30950;53.086;21.576;2023-08-20T03:39:05;20.10;99.90
45207;DHT22;30950;53.086;21.576;2023-08-20T03:41:32;20.10;99.90
45207;DHT22;30950;53.086;21.576;2023-08-20T03:44:00;20.00;99.90
45207;DHT22;30950;53.086;21.576;2023-08-20T03:46:27;20.00;99.90
45207;DHT22;30950;53.086;21.576;2023-08-20T03:48:56;20.00;99.90
45207;DHT22;30950;53.086;21.576;2023-08-20T03:51:23;20.00;99.90
45207;DHT22;30950;53.086;21.576;2023-08-20T03:53:50;20.10;99.90
45207;DHT22;30950;53.086;21.576;2023-08-20T03:56:18;20.00;99.90
45207;DHT22;30950;53.086;21.576;2023-08-20T03:58:45;20.00;99.90
45207;DHT22;30950;53.086;21.576;2023-08-20T04:01:12;20.00;99.90
45207;DHT22;30950;53.086;21.576;2023-08-20T04:03:40;20.00;99.90
45207;DHT22;30950;53.086;21.576;2023-08-20T04:06:07;20.00;99.90
45207;DHT22;30950;53.086;21.576;2023-08-20T04:08:36;20.10;99.90
45207;DHT22;30950;53.086;21.576;2023-08-20T04:11:04;20.10;99.90
45207;DHT22;30950;53.086;21.576;2023-08-20T04:13:32;20.10;99.90
45207;DHT22;30950;53.086;21.576;2023-08-20T04:15:59;20.10;99.90
45207;DHT22;30950;53.086;21.576;2023-08-20T04:18:27;20.10;99.90
45207;DHT22;30950;53.086;21.576;2023-08-20T04:20:56;20.10;99.90
45207;DHT22;30950;53.086;21.576;2023-08-20T04:23:25;20.10;99.90
45207;DHT22;30950;53.086;21.576;2023-08-20T04:25:52;20.10;99.90
45207;DHT22;30950;53.086;21.576;2023-08-20T04:28:20;20.10;99.90
45207;DHT22;30950;53.086;21.576;2023-08-20T04:30:48;20.00;99.90
45207;DHT22;30950;53.086;21.576;2023-08-20T04:33:17;20.10;99.90
45207;DHT22;30950;53.086;21.576;2023-08-20T04:35:46;20.00;99.90
45207;DHT22;30950;53.086;21.576;2023-08-20T04:38:13;20.00;99.90
45207;DHT22;30950;53.086;21.576;2023-08-20T04:40:41;20.10;99.90
45207;DHT22;30950;53.086;21.576;2023-08-20T04:43:08;20.10;99.90
45207;DHT22;30950;53.086;21.576;2023-08-20T04:45:35;20.20;99.90
45207;DHT22;30950;53.086;21.576;2023-08-20T04:48:03;20.20;99.90
45207;DHT22;30950;53.086;21.576;2023-08-20T04:50:31;20.30;99.90
45207;DHT22;30950;53.086;21.576;2023-08-20T04:52:59;20.30;99.90
45207;DHT22;30950;53.086;21.576;2023-08-20T04:55:27;20.30;99.90
45207;DHT22;30950;53.086;21.576;2023-08-20T04:57:55;20.40;99.90
45207;DHT22;30950;53.086;21.576;2023-08-20T05:00:23;20.40;99.90
45207;DHT22;30950;53.086;21.576;2023-08-20T05:03:06;20.40;99.90
45207;DHT22;30950;53.086;21.576;2023-08-20T05:05:34;20.40;99.90
45207;DHT22;30950;53.086;21.576;2023-08-20T05:08:02;20.40;99.90
45207;DHT22;30950;53.086;21.576;2023-08-20T05:10:30;20.40;99.90
45207;DHT22;30950;53.086;21.576;2023-08-20T05:12:58;20.50;99.90
45207;DHT22;30950;53.086;21.576;2023-08-20T05:15:26;20.50;99.90
45207;DHT22;30950;53.086;21.576;2023-08-20T05:17:54;20.60;99.90
45207;DHT22;30950;53.086;21.576;2023-08-20T05:20:21;20.60;99.90
45207;DHT22;30950;53.086;21.576;2023-08-20T05:22:49;20.60;99.90
45207;DHT22;30950;53.086;21.576;2023-08-20T05:25:16;20.70;99.90
45207;DHT22;30950;53.086;21.576;2023-08-20T05:27:44;20.70;99.90
45207;DHT22;30950;53.086;21.576;2023-08-20T05:30:11;20.80;99.90
45207;DHT22;30950;53.086;21.576;2023-08-20T05:32:39;20.90;99.90
45207;DHT22;30950;53.086;21.576;2023-08-20T05:35:06;21.00;99.90
45207;DHT22;30950;53.086;21.576;2023-08-20T05:37:34;21.10;99.90
45207;DHT22;30950;53.086;21.576;2023-08-20T05:40:01;21.10;99.90
45207;DHT22;30950;53.086;21.576;2023-08-20T05:42:32;21.20;99.90
45207;DHT22;30950;53.086;21.576;2023-08-20T05:45:05;21.30;99.90
45207;DHT22;30950;53.086;21.576;2023-08-20T05:47:36;21.40;99.90
45207;DHT22;30950;53.086;21.576;2023-08-20T05:50:06;21.50;99.90
45207;DHT22;30950;53.086;21.576;2023-08-20T05:52:34;21.60;99.90
45207;DHT22;30950;53.086;21.576;2023-08-20T05:55:02;21.70;99.90
45207;DHT22;30950;53.086;21.576;2023-08-20T05:57:30;21.70;99.90
45207;DHT22;30950;53.086;21.576;2023-08-20T05:59:58;21.80;99.90
45207;DHT22;30950;53.086;21.576;2023-08-20T06:02:26;21.90;99.90
45207;DHT22;30950;53.086;21.576;2023-08-20T06:04:53;21.90;99.90
45207;DHT22;30950;53.086;21.576;2023-08-20T06:07:21;22.00;99.90
45207;DHT22;30950;53.086;21.576;2023-08-20T06:09:48;22.10;99.90
45207;DHT22;30950;53.086;21.576;2023-08-20T06:12:17;22.20;99.90
45207;DHT22;30950;53.086;21.576;2023-08-20T06:14:44;22.30;99.90
45207;DHT22;30950;53.086;21.576;2023-08-20T06:17:13;22.30;99.90
45207;DHT22;30950;53.086;21.576;2023-08-20T06:19:41;22.40;99.90
45207;DHT22;30950;53.086;21.576;2023-08-20T06:22:09;22.50;99.90
45207;DHT22;30950;53.086;21.576;2023-08-20T06:24:36;22.50;99.90
45207;DHT22;30950;53.086;21.576;2023-08-20T06:27:04;22.60;99.90
45207;DHT22;30950;53.086;21.576;2023-08-20T06:29:34;22.70;99.90
45207;DHT22;30950;53.086;21.576;2023-08-20T06:32:02;22.80;99.90
45207;DHT22;30950;53.086;21.576;2023-08-20T06:34:29;22.90;99.90
45207;DHT22;30950;53.086;21.576;2023-08-20T06:36:57;22.90;99.90
45207;DHT22;30950;53.086;21.576;2023-08-20T06:39:24;23.00;99.90
45207;DHT22;30950;53.086;21.576;2023-08-20T06:41:51;23.10;99.90
45207;DHT22;30950;53.086;21.576;2023-08-20T06:44:20;23.20;99.90
45207;DHT22;30950;53.086;21.576;2023-08-20T06:46:47;23.30;99.90
45207;DHT22;30950;53.086;21.576;2023-08-20T06:49:14;23.40;99.90
45207;DHT22;30950;53.086;21.576;2023-08-20T06:51:42;23.40;99.90
45207;DHT22;30950;53.086;21.576;2023-08-20T06:54:09;23.50;99.90
45207;DHT22;30950;53.086;21.576;2023-08-20T06:56:40;23.60;99.90
45207;DHT22;30950;53.086;21.576;2023-08-20T06:59:07;23.70;99.90
45207;DHT22;30950;53.086;21.576;2023-08-20T07:01:34;23.80;99.90
45207;DHT22;30950;53.086;21.576;2023-08-20T07:04:02;23.90;99.90
45207;DHT22;30950;53.086;21.576;2023-08-20T07:06:30;23.90;99.90
45207;DHT22;30950;53.086;21.576;2023-08-20T07:08:58;24.10;99.90
45207;DHT22;30950;53.086;21.576;2023-08-20T07:11:25;24.10;99.90
45207;DHT22;30950;53.086;21.576;2023-08-20T07:13:52;24.20;99.90
45207;DHT22;30950;53.086;21.576;2023-08-20T07:16:20;24.30;99.90
45207;DHT22;30950;53.086;21.576;2023-08-20T07:18:47;24.40;99.90
45207;DHT22;30950;53.086;21.576;2023-08-20T07:21:15;24.50;99.90
45207;DHT22;30950;53.086;21.576;2023-08-20T07:23:45;24.60;99.90
45207;DHT22;30950;53.086;21.576;2023-08-20T07:26:12;24.70;99.90
45207;DHT22;30950;53.086;21.576;2023-08-20T07:28:40;24.80;99.90
45207;DHT22;30950;53.086;21.576;2023-08-20T07:31:31;24.90;99.90
45207;DHT22;30950;53.086;21.576;2023-08-20T07:34:00;25.00;99.90
45207;DHT22;30950;53.086;21.576;2023-08-20T07:36:31;25.10;99.90
45207;DHT22;30950;53.086;21.576;2023-08-20T07:38:59;25.20;99.90
45207;DHT22;30950;53.086;21.576;2023-08-20T07:41:28;25.30;99.90
45207;DHT22;30950;53.086;21.576;2023-08-20T07:43:56;25.30;99.90
45207;DHT22;30950;53.086;21.576;2023-08-20T07:46:23;25.40;99.90
45207;DHT22;30950;53.086;21.576;2023-08-20T07:48:50;25.40;99.90
45207;DHT22;30950;53.086;21.576;2023-08-20T07:51:18;25.50;99.90
45207;DHT22;30950;53.086;21.576;2023-08-20T07:53:45;25.60;99.90
45207;DHT22;30950;53.086;21.576;2023-08-20T07:56:13;25.70;99.90
45207;DHT22;30950;53.086;21.576;2023-08-20T07:58:40;25.80;99.90
45207;DHT22;30950;53.086;21.576;2023-08-20T08:01:08;25.80;99.90
45207;DHT22;30950;53.086;21.576;2023-08-20T08:03:35;25.90;99.90
45207;DHT22;30950;53.086;21.576;2023-08-20T08:06:03;25.90;99.90
45207;DHT22;30950;53.086;21.576;2023-08-20T08:08:30;26.00;99.90
45207;DHT22;30950;53.086;21.576;2023-08-20T08:10:58;26.10;99.90
45207;DHT22;30950;53.086;21.576;2023-08-20T08:13:25;26.20;99.90
45207;DHT22;30950;53.086;21.576;2023-08-20T08:15:53;26.30;99.90
45207;DHT22;30950;53.086;21.576;2023-08-20T08:18:20;26.30;99.90
45207;DHT22;30950;53.086;21.576;2023-08-20T08:20:48;26.40;99.90
45207;DHT22;30950;53.086;21.576;2023-08-20T08:23:16;26.50;99.90
45207;DHT22;30950;53.086;21.576;2023-08-20T08:25:43;26.50;99.90
45207;DHT22;30950;53.086;21.576;2023-08-20T08:28:10;26.60;99.90
45207;DHT22;30950;53.086;21.576;2023-08-20T08:30:38;26.70;99.90
45207;DHT22;30950;53.086;21.576;2023-08-20T08:33:07;26.70;99.90
45207;DHT22;30950;53.086;21.576;2023-08-20T08:35:34;26.80;99.90
45207;DHT22;30950;53.086;21.576;2023-08-20T08:38:10;26.90;99.90
45207;DHT22;30950;53.086;21.576;2023-08-20T08:40:43;27.00;99.90
45207;DHT22;30950;53.086;21.576;2023-08-20T08:43:11;27.00;99.90
45207;DHT22;30950;53.086;21.576;2023-08-20T08:45:47;27.10;99.90
45207;DHT22;30950;53.086;21.576;2023-08-20T08:48:16;27.20;99.90
45207;DHT22;30950;53.086;21.576;2023-08-20T08:50:44;27.30;99.90
45207;DHT22;30950;53.086;21.576;2023-08-20T08:53:13;27.40;99.90
45207;DHT22;30950;53.086;21.576;2023-08-20T08:55:40;27.40;99.90
45207;DHT22;30950;53.086;21.576;2023-08-20T08:58:10;27.50;99.90
45207;DHT22;30950;53.086;21.576;2023-08-20T09:00:37;27.60;99.90
45207;DHT22;30950;53.086;21.576;2023-08-20T09:03:05;27.60;99.90
45207;DHT22;30950;53.086;21.576;2023-08-20T09:05:32;27.70;99.90
45207;DHT22;30950;53.086;21.576;2023-08-20T09:07:59;27.80;99.90
45207;DHT22;30950;53.086;21.576;2023-08-20T09:10:27;27.90;99.90
45207;DHT22;30950;53.086;21.576;2023-08-20T09:12:55;27.90;99.90
45207;DHT22;30950;53.086;21.576;2023-08-20T09:15:33;27.90;99.90
45207;DHT22;30950;53.086;21.576;2023-08-20T09:18:02;28.00;99.90
45207;DHT22;30950;53.086;21.576;2023-08-20T09:20:36;28.00;99.90
45207;DHT22;30950;53.086;21.576;2023-08-20T09:23:13;28.10;99.90
45207;DHT22;30950;53.086;21.576;2023-08-20T09:25:42;28.20;99.90
45207;DHT22;30950;53.086;21.576;2023-08-20T09:28:09;28.30;99.90
45207;DHT22;30950;53.086;21.576;2023-08-20T09:30:37;28.40;99.90
45207;DHT22;30950;53.086;21.576;2023-08-20T09:33:10;28.40;99.90
45207;DHT22;30950;53.086;21.576;2023-08-20T09:35:38;28.50;99.90
45207;DHT22;30950;53.086;21.576;2023-08-20T09:38:06;28.60;99.90
45207;DHT22;30950;53.086;21.576;2023-08-20T09:40:34;28.70;99.90
45207;DHT22;30950;53.086;21.576;2023-08-20T09:43:02;28.80;99.90
45207;DHT22;30950;53.086;21.576;2023-08-20T09:45:30;28.90;99.90
45207;DHT22;30950;53.086;21.576;2023-08-20T09:47:59;29.00;99.90
45207;DHT22;30950;53.086;21.576;2023-08-20T09:50:28;29.20;99.30
45207;DHT22;30950;53.086;21.576;2023-08-20T09:53:06;29.20;98.50
45207;DHT22;30950;53.086;21.576;2023-08-20T09:55:35;29.30;97.50
45207;DHT22;30950;53.086;21.576;2023-08-20T09:58:06;29.40;96.60
45207;DHT22;30950;53.086;21.576;2023-08-20T10:00:35;29.50;96.60
45207;DHT22;30950;53.086;21.576;2023-08-20T10:03:02;29.50;95.70
45207;DHT22;30950;53.086;21.576;2023-08-20T10:05:31;29.50;95.10
45207;DHT22;30950;53.086;21.576;2023-08-20T10:07:59;29.60;94.70
45207;DHT22;30950;53.086;21.576;2023-08-20T10:10:27;29.70;95.00
45207;DHT22;30950;53.086;21.576;2023-08-20T10:12:55;29.80;93.70
45207;DHT22;30950;53.086;21.576;2023-08-20T10:15:23;29.80;92.60
45207;DHT22;30950;53.086;21.576;2023-08-20T10:17:51;29.90;92.10
45207;DHT22;30950;53.086;21.576;2023-08-20T10:20:19;29.90;91.70
45207;DHT22;30950;53.086;21.576;2023-08-20T10:22:50;30.00;91.40
45207;DHT22;30950;53.086;21.576;2023-08-20T10:25:23;29.70;90.80
45207;DHT22;30950;53.086;21.576;2023-08-20T10:27:51;29.90;90.30
45207;DHT22;30950;53.086;21.576;2023-08-20T10:30:22;30.00;90.20
45207;DHT22;30950;53.086;21.576;2023-08-20T10:32:51;30.30;90.10
45207;DHT22;30950;53.086;21.576;2023-08-20T10:35:47;30.80;89.80
45207;DHT22;30950;53.086;21.576;2023-08-20T10:38:15;31.40;87.00
45207;DHT22;30950;53.086;21.576;2023-08-20T10:40:56;32.00;86.10
45207;DHT22;30950;53.086;21.576;2023-08-20T10:43:35;32.60;82.00
45207;DHT22;30950;53.086;21.576;2023-08-20T10:46:23;33.00;79.60
45207;DHT22;30950;53.086;21.576;2023-08-20T10:49:01;33.40;76.80
45207;DHT22;30950;53.086;21.576;2023-08-20T10:51:35;33.40;75.00
45207;DHT22;30950;53.086;21.576;2023-08-20T10:54:07;33.30;74.00
45207;DHT22;30950;53.086;21.576;2023-08-20T10:56:45;33.00;71.70
45207;DHT22;30950;53.086;21.576;2023-08-20T10:59:17;32.60;71.50
45207;DHT22;30950;53.086;21.576;2023-08-20T11:01:50;32.30;72.10
45207;DHT22;30950;53.086;21.576;2023-08-20T11:04:20;32.00;72.80
45207;DHT22;30950;53.086;21.576;2023-08-20T11:06:52;31.80;71.90
45207;DHT22;30950;53.086;21.576;2023-08-20T11:09:25;31.70;70.40
45207;DHT22;30950;53.086;21.576;2023-08-20T11:11:53;31.50;70.00
45207;DHT22;30950;53.086;21.576;2023-08-20T11:14:21;31.40;69.90
45207;DHT22;30950;53.086;21.576;2023-08-20T11:16:50;31.40;70.20
45207;DHT22;30950;53.086;21.576;2023-08-20T11:19:22;31.30;68.50
45207;DHT22;30950;53.086;21.576;2023-08-20T11:21:51;31.30;66.90
45207;DHT22;30950;53.086;21.576;2023-08-20T11:24:19;31.30;66.90
45207;DHT22;30950;53.086;21.576;2023-08-20T11:26:48;31.30;67.90
45207;DHT22;30950;53.086;21.576;2023-08-20T11:29:16;31.30;68.90
45207;DHT22;30950;53.086;21.576;2023-08-20T11:31:50;31.40;69.20
45207;DHT22;30950;53.086;21.576;2023-08-20T11:34:18;31.50;69.10
45207;DHT22;30950;53.086;21.576;2023-08-20T11:36:46;31.60;69.00
45207;DHT22;30950;53.086;21.576;2023-08-20T11:39:15;31.60;68.10
45207;DHT22;30950;53.086;21.576;2023-08-20T11:41:43;31.70;67.10
45207;DHT22;30950;53.086;21.576;2023-08-20T11:44:19;31.80;67.30
45207;DHT22;30950;53.086;21.576;2023-08-20T11:46:48;31.90;66.30
45207;DHT22;30950;53.086;21.576;2023-08-20T11:49:16;32.00;65.80
45207;DHT22;30950;53.086;21.576;2023-08-20T11:51:47;32.00;65.50
45207;DHT22;30950;53.086;21.576;2023-08-20T11:54:16;32.10;66.10
45207;DHT22;30950;53.086;21.576;2023-08-20T11:56:45;32.20;65.90
45207;DHT22;30950;53.086;21.576;2023-08-20T11:59:14;32.10;65.40
45207;DHT22;30950;53.086;21.576;2023-08-20T12:01:42;32.00;66.10
45207;DHT22;30950;53.086;21.576;2023-08-20T12:04:10;31.90;66.00
45207;DHT22;30950;53.086;21.576;2023-08-20T12:06:38;31.90;66.10
45207;DHT22;30950;53.086;21.576;2023-08-20T12:09:22;31.90;66.30
45207;DHT22;30950;53.086;21.576;2023-08-20T12:11:54;31.80;66.20
45207;DHT22;30950;53.086;21.576;2023-08-20T12:14:25;31.80;66.90
45207;DHT22;30950;53.086;21.576;2023-08-20T12:16:56;31.90;67.30
45207;DHT22;30950;53.086;21.576;2023-08-20T12:19:24;32.00;66.90
45207;DHT22;30950;53.086;21.576;2023-08-20T12:21:52;32.10;66.50
45207;DHT22;30950;53.086;21.576;2023-08-20T12:24:19;32.20;66.20
45207;DHT22;30950;53.086;21.576;2023-08-20T12:26:47;32.30;66.10
45207;DHT22;30950;53.086;21.576;2023-08-20T12:29:16;32.40;65.80
45207;DHT22;30950;53.086;21.576;2023-08-20T12:31:43;32.50;66.20
45207;DHT22;30950;53.086;21.576;2023-08-20T12:34:11;32.50;66.10
45207;DHT22;30950;53.086;21.576;2023-08-20T12:36:38;32.50;66.20
45207;DHT22;30950;53.086;21.576;2023-08-20T12:39:06;32.60;65.50
45207;DHT22;30950;53.086;21.576;2023-08-20T12:41:33;32.40;65.40
45207;DHT22;30950;53.086;21.576;2023-08-20T12:44:03;32.30;65.30
45207;DHT22;30950;53.086;21.576;2023-08-20T12:46:30;32.20;65.40
45207;DHT22;30950;53.086;21.576;2023-08-20T12:48:58;32.10;65.80
45207;DHT22;30950;53.086;21.576;2023-08-20T12:51:26;31.90;66.00
45207;DHT22;30950;53.086;21.576;2023-08-20T12:53:54;31.80;66.30
45207;DHT22;30950;53.086;21.576;2023-08-20T12:56:21;31.70;65.90
45207;DHT22;30950;53.086;21.576;2023-08-20T12:58:49;31.60;65.70
45207;DHT22;30950;53.086;21.576;2023-08-20T13:01:16;31.60;66.20
45207;DHT22;30950;53.086;21.576;2023-08-20T13:03:45;31.90;66.90
45207;DHT22;30950;53.086;21.576;2023-08-20T13:06:13;32.50;67.10
45207;DHT22;30950;53.086;21.576;2023-08-20T13:08:41;33.10;66.20
45207;DHT22;30950;53.086;21.576;2023-08-20T13:11:13;33.80;64.60
45207;DHT22;30950;53.086;21.576;2023-08-20T13:13:41;34.50;64.20
45207;DHT22;30950;53.086;21.576;2023-08-20T13:16:11;35.10;63.40
45207;DHT22;30950;53.086;21.576;2023-08-20T13:18:39;35.70;61.70
45207;DHT22;30950;53.086;21.576;2023-08-20T13:21:06;36.10;61.00
45207;DHT22;30950;53.086;21.576;2023-08-20T13:23:34;36.50;60.30
45207;DHT22;30950;53.086;21.576;2023-08-20T13:26:01;36.90;59.20
45207;DHT22;30950;53.086;21.576;2023-08-20T13:28:29;37.10;58.30
45207;DHT22;30950;53.086;21.576;2023-08-20T13:30:56;37.20;57.30
45207;DHT22;30950;53.086;21.576;2023-08-20T13:33:24;37.00;56.40
45207;DHT22;30950;53.086;21.576;2023-08-20T13:35:53;36.70;56.10
45207;DHT22;30950;53.086;21.576;2023-08-20T13:38:21;36.50;56.60
45207;DHT22;30950;53.086;21.576;2023-08-20T13:40:49;36.20;56.70
45207;DHT22;30950;53.086;21.576;2023-08-20T13:43:17;36.00;56.80
45207;DHT22;30950;53.086;21.576;2023-08-20T13:45:44;36.00;56.90
45207;DHT22;30950;53.086;21.576;2023-08-20T13:48:12;36.10;57.00
45207;DHT22;30950;53.086;21.576;2023-08-20T13:50:39;36.30;56.60
45207;DHT22;30950;53.086;21.576;2023-08-20T13:53:07;36.60;56.50
45207;DHT22;30950;53.086;21.576;2023-08-20T13:55:34;36.70;56.00
45207;DHT22;30950;53.086;21.576;2023-08-20T13:58:02;36.80;55.40
45207;DHT22;30950;53.086;21.576;2023-08-20T14:00:29;37.10;55.30
45207;DHT22;30950;53.086;21.576;2023-08-20T14:02:57;37.30;54.60
45207;DHT22;30950;53.086;21.576;2023-08-20T14:05:25;37.30;54.40
45207;DHT22;30950;53.086;21.576;2023-08-20T14:07:53;37.40;54.60
45207;DHT22;30950;53.086;21.576;2023-08-20T14:10:20;37.30;54.40
45207;DHT22;30950;53.086;21.576;2023-08-20T14:12:48;37.30;54.50
45207;DHT22;30950;53.086;21.576;2023-08-20T14:15:15;37.30;54.70
45207;DHT22;30950;53.086;21.576;2023-08-20T14:17:43;37.20;54.60
45207;DHT22;30950;53.086;21.576;2023-08-20T14:20:10;37.10;54.40
45207;DHT22;30950;53.086;21.576;2023-08-20T14:22:38;37.10;54.70
45207;DHT22;30950;53.086;21.576;2023-08-20T14:25:06;36.80;54.00
45207;DHT22;30950;53.086;21.576;2023-08-20T14:27:34;36.40;54.10
45207;DHT22;30950;53.086;21.576;2023-08-20T14:30:01;35.90;54.40
45207;DHT22;30950;53.086;21.576;2023-08-20T14:32:30;35.50;55.10
45207;DHT22;30950;53.086;21.576;2023-08-20T14:34:58;35.30;55.80
45207;DHT22;30950;53.086;21.576;2023-08-20T14:37:25;35.20;55.90
45207;DHT22;30950;53.086;21.576;2023-08-20T14:39:53;35.10;56.20
45207;DHT22;30950;53.086;21.576;2023-08-20T14:42:20;34.80;56.00
45207;DHT22;30950;53.086;21.576;2023-08-20T14:44:48;34.70;56.30
45207;DHT22;30950;53.086;21.576;2023-08-20T14:47:15;34.50;56.40
45207;DHT22;30950;53.086;21.576;2023-08-20T14:49:43;34.50;56.50
45207;DHT22;30950;53.086;21.576;2023-08-20T14:52:10;34.40;56.70
45207;DHT22;30950;53.086;21.576;2023-08-20T14:54:46;34.40;56.80
45207;DHT22;30950;53.086;21.576;2023-08-20T14:57:16;34.50;56.90
45207;DHT22;30950;53.086;21.576;2023-08-20T14:59:44;34.50;56.90
45207;DHT22;30950;53.086;21.576;2023-08-20T15:02:12;34.40;57.30
45207;DHT22;30950;53.086;21.576;2023-08-20T15:04:40;34.40;57.50
45207;DHT22;30950;53.086;21.576;2023-08-20T15:07:07;34.10;57.30
45207;DHT22;30950;53.086;21.576;2023-08-20T15:09:35;33.90;57.90
45207;DHT22;30950;53.086;21.576;2023-08-20T15:12:03;33.80;58.30
45207;DHT22;30950;53.086;21.576;2023-08-20T15:14:31;33.60;58.70
45207;DHT22;30950;53.086;21.576;2023-08-20T15:16:58;33.50;59.20
45207;DHT22;30950;53.086;21.576;2023-08-20T15:19:25;33.50;59.40
45207;DHT22;30950;53.086;21.576;2023-08-20T15:21:53;33.60;59.40
45207;DHT22;30950;53.086;21.576;2023-08-20T15:24:20;33.60;59.50
45207;DHT22;30950;53.086;21.576;2023-08-20T15:26:48;33.80;59.30
45207;DHT22;30950;53.086;21.576;2023-08-20T15:29:15;34.00;59.00
45207;DHT22;30950;53.086;21.576;2023-08-20T15:31:43;34.20;59.10
45207;DHT22;30950;53.086;21.576;2023-08-20T15:34:10;34.40;59.00